sensor_id;sensor_type;location;lat;lon;timestamp;temperature;humidity
2967;DHT22;1493;51.496;7.210;2022-08-19T00:01:29;20.10;99.90
2967;DHT22;1493;51.496;7.210;2022-08-19T00:03:57;20.00;99.90
2967;DHT22;1493;51.496;7.210;2022-08-19T00:06:24;20.00;99.90
2967;DHT22;1493;51.496;7.210;2022-08-19T00:08:51;20.00;99.90
2967;DHT22;1493;51.496;7.210;2022-08-19T00:11:18;19.90;99.90
2967;DHT22;1493;51.496;7.210;2022-08-19T00:13:45;19.90;99.90
2967;DHT22;1493;51.496;7.210;2022-08-19T00:16:14;19.90;99.90
2967;DHT22;1493;51.496;7.210;2022-08-19T00:18:42;19.90;99.90
2967;DHT22;1493;51.496;7.210;2022-08-19T00:21:09;19.90;99.90
2967;DHT22;1493;51.496;7.210;2022-08-19T00:23:36;19.90;99.90
2967;DHT22;1493;51.496;7.210;2022-08-19T00:26:04;19.90;99.90
2967;DHT22;1493;51.496;7.210;2022-08-19T00:28:31;19.90;99.90
2967;DHT22;1493;51.496;7.210;2022-08-19T00:30:58;19.80;99.90
2967;DHT22;1493;51.496;7.210;2022-08-19T00:33:25;19.80;99.90
2967;DHT22;1493;51.496;7.210;2022-08-19T00:35:55;19.80;99.90
2967;DHT22;1493;51.496;7.210;2022-08-19T00:38:22;19.80;99.90
2967;DHT22;1493;51.496;7.210;2022-08-19T00:40:48;19.70;99.90
2967;DHT22;1493;51.496;7.210;2022-08-19T00:43:20;19.70;99.90
2967;DHT22;1493;51.496;7.210;2022-08-19T00:45:47;19.70;99.90
2967;DHT22;1493;51.496;7.210;2022-08-19T00:48:15;19.70;99.90
2967;DHT22;1493;51.496;7.210;2022-08-19T00:50:44;19.70;99.90
2967;DHT22;1493;51.496;7.210;2022-08-19T00:53:15;19.70;99.90
2967;DHT22;1493;51.496;7.210;2022-08-19T00:55:45;19.70;99.90
2967;DHT22;1493;51.496;7.210;2022-08-19T00:58:15;19.70;99.90
2967;DHT22;1493;51.496;7.210;2022-08-19T01:00:43;19.70;99.90
2967;DHT22;1493;51.496;7.210;2022-08-19T01:03:12;19.70;99.90
2967;DHT22;1493;51.496;7.210;2022-08-19T01:05:42;19.60;99.90
2967;DHT22;1493;51.496;7.210;2022-08-19T01:08:11;19.60;99.90
2967;DHT22;1493;51.496;7.210;2022-08-19T01:10:43;19.60;99.90
2967;DHT22;1493;51.496;7.210;2022-08-19T01:13:13;19.50;99.90
2967;DHT22;1493;51.496;7.210;2022-08-19T01:15:48;19.50;99.90
2967;DHT22;1493;51.496;7.210;2022-08-19T01:18:17;19.50;99.90
2967;DHT22;1493;51.496;7.210;2022-08-19T01:20:45;19.50;99.90
2967;DHT22;1493;51.496;7.210;2022-08-19T01:23:14;19.50;99.90
2967;DHT22;1493;51.496;7.210;2022-08-19T01:25:46;19.50;99.90
2967;DHT22;1493;51.496;7.210;2022-08-19T01:28:17;19.50;99.90
2967;DHT22;1493;51.496;7.210;2022-08-19T01:30:45;19.50;99.90
2967;DHT22;1493;51.496;7.210;2022-08-19T01:33:13;19.40;99.90
2967;DHT22;1493;51.496;7.210;2022-08-19T01:35:41;19.40;99.90
2967;DHT22;1493;51.496;7.210;2022-08-19T01:38:10;19.40;99.90
2967;DHT22;1493;51.496;7.210;2022-08-19T01:40:46;19.40;99.90
2967;DHT22;1493;51.496;7.210;2022-08-19T01:43:13;19.40;99.90
2967;DHT22;1493;51.496;7.210;2022-08-19T01:45:40;19.40;99.90
2967;DHT22;1493;51.496;7.210;2022-08-19T01:48:08;19.30;99.90
2967;DHT22;1493;51.496;7.210;2022-08-19T01:50:35;19.30;99.90
2967;DHT22;1493;51.496;7.210;2022-08-19T01:53:05;19.30;99.90
2967;DHT22;1493;51.496;7.210;2022-08-19T01:55:33;19.30;99.90
2967;DHT22;1493;51.496;7.210;2022-08-19T01:58:05;19.30;99.90
2967;DHT22;1493;51.496;7.210;2022-08-19T02:00:35;19.30;99.90
2967;DHT22;1493;51.496;7.210;2022-08-19T02:03:02;19.30;99.90
2967;DHT22;1493;51.496;7.210;2022-08-19T02:05:30;19.30;99.90
2967;DHT22;1493;51.496;7.210;2022-08-19T02:07:57;19.30;99.90
2967;DHT22;1493;51.496;7.210;2022-08-19T02:10:25;19.30;99.90
2967;DHT22;1493;51.496;7.210;2022-08-19T02:12:52;19.20;99.90
2967;DHT22;1493;51.496;7.210;2022-08-19T02:15:20;19.30;99.90
2967;DHT22;1493;51.496;7.210;2022-08-19T02:17:47;19.20;99.90
2967;DHT22;1493;51.496;7.210;2022-08-19T02:20:15;19.20;99.90
2967;DHT22;1493;51.496;7.210;2022-08-19T02:22:43;19.20;99.90
2967;DHT22;1493;51.496;7.210;2022-08-19T02:25:10;19.20;99.90
2967;DHT22;1493;51.496;7.210;2022-08-19T02:27:38;19.20;99.90
2967;DHT22;1493;51.496;7.210;2022-08-19T02:30:07;19.20;99.90
2967;DHT22;1493;51.496;7.210;2022-08-19T02:32:35;19.20;99.90
2967;DHT22;1493;51.496;7.210;2022-08-19T02:35:03;19.20;99.90
2967;DHT22;1493;51.496;7.210;2022-08-19T02:37:30;19.20;99.90
2967;DHT22;1493;51.496;7.210;2022-08-19T02:40:14;19.20;99.90
2967;DHT22;1493;51.496;7.210;2022-08-19T02:42:43;19.20;99.90
2967;DHT22;1493;51.496;7.210;2022-08-19T02:45:11;19.20;99.90
2967;DHT22;1493;51.496;7.210;2022-08-19T02:47:40;19.10;99.90
2967;DHT22;1493;51.496;7.210;2022-08-19T02:50:08;19.10;99.90
2967;DHT22;1493;51.496;7.210;2022-08-19T02:52:35;19.10;99.90
2967;DHT22;1493;51.496;7.210;2022-08-19T02:55:03;19.00;99.90
2967;DHT22;1493;51.496;7.210;2022-08-19T02:57:31;19.00;99.90
2967;DHT22;1493;51.496;7.210;2022-08-19T02:59:58;19.00;99.90
2967;DHT22;1493;51.496;7.210;2022-08-19T03:02:25;19.00;99.90
2967;DHT22;1493;51.496;7.210;2022-08-19T03:04:54;19.00;99.90
2967;DHT22;1493;51.496;7.210;2022-08-19T03:07:20;19.00;99.90
2967;DHT22;1493;51.496;7.210;2022-08-19T03:09:47;19.00;99.90
2967;DHT22;1493;51.496;7.210;2022-08-19T03:12:14;19.00;99.90
2967;DHT22;1493;51.496;7.210;2022-08-19T03:14:41;19.00;99.90
2967;DHT22;1493;51.496;7.210;2022-08-19T03:17:08;19.00;99.90
2967;DHT22;1493;51.496;7.210;2022-08-19T03:19:34;19.00;99.90
2967;DHT22;1493;51.496;7.210;2022-08-19T03:22:03;19.00;99.90
2967;DHT22;1493;51.496;7.210;2022-08-19T03:24:30;19.00;99.90
2967;DHT22;1493;51.496;7.210;2022-08-19T03:26:58;19.00;99.90
2967;DHT22;1493;51.496;7.210;2022-08-19T03:29:25;18.90;99.90
2967;DHT22;1493;51.496;7.210;2022-08-19T03:31:53;18.90;99.90
2967;DHT22;1493;51.496;7.210;2022-08-19T03:34:23;18.90;99.90
2967;DHT22;1493;51.496;7.210;2022-08-19T03:36:52;18.90;99.90
2967;DHT22;1493;51.496;7.210;2022-08-19T03:39:22;18.90;99.90
2967;DHT22;1493;51.496;7.210;2022-08-19T03:41:50;18.90;99.90
2967;DHT22;1493;51.496;7.210;2022-08-19T03:44:20;18.90;99.90
2967;DHT22;1493;51.496;7.210;2022-08-19T03:46:50;18.90;99.90
2967;DHT22;1493;51.496;7.210;2022-08-19T03:49:18;18.90;99.90
2967;DHT22;1493;51.496;7.210;2022-08-19T03:51:48;18.90;99.90
2967;DHT22;1493;51.496;7.210;2022-08-19T03:54:18;18.90;99.90
2967;DHT22;1493;51.496;7.210;2022-08-19T03:56:49;18.90;99.90
2967;DHT22;1493;51.496;7.210;2022-08-19T03:59:19;18.90;99.90
2967;DHT22;1493;51.496;7.210;2022-08-19T04:01:52;18.90;99.90
2967;DHT22;1493;51.496;7.210;2022-08-19T04:04:19;18.90;99.90
2967;DHT22;1493;51.496;7.210;2022-08-19T04:06:47;18.90;99.90
2967;DHT22;1493;51.496;7.210;2022-08-19T04:09:14;18.80;99.90
2967;DHT22;1493;51.496;7.210;2022-08-19T04:11:44;18.90;99.90
2967;DHT22;1493;51.496;7.210;2022-08-19T04:14:16;18.80;99.90
2967;DHT22;1493;51.496;7.210;2022-08-19T04:16:44;18.80;99.90
2967;DHT22;1493;51.496;7.210;2022-08-19T04:19:13;18.80;99.90
2967;DHT22;1493;51.496;7.210;2022-08-19T04:21:43;18.80;99.90
2967;DHT22;1493;51.496;7.210;2022-08-19T04:24:11;18.80;99.90
2967;DHT22;1493;51.496;7.210;2022-08-19T04:26:38;18.80;99.90
2967;DHT22;1493;51.496;7.210;2022-08-19T04:29:10;18.80;99.90
2967;DHT22;1493;51.496;7.210;2022-08-19T04:31:38;18.70;99.90
2967;DHT22;1493;51.496;7.210;2022-08-19T04:34:08;18.70;99.90
2967;DHT22;1493;51.496;7.210;2022-08-19T04:36:38;18.80;99.90
2967;DHT22;1493;51.496;7.210;2022-08-19T04:39:08;18.70;99.90
2967;DHT22;1493;51.496;7.210;2022-08-19T04:41:36;18.80;99.90
2967;DHT22;1493;51.496;7.210;2022-08-19T04:44:21;18.80;99.90
2967;DHT22;1493;51.496;7.210;2022-08-19T04:46:50;18.80;99.90
2967;DHT22;1493;51.496;7.210;2022-08-19T04:49:19;18.80;99.90
2967;DHT22;1493;51.496;7.210;2022-08-19T04:51:47;18.90;99.90
2967;DHT22;1493;51.496;7.210;2022-08-19T04:54:15;18.90;99.90
2967;DHT22;1493;51.496;7.210;2022-08-19T04:56:42;18.90;99.90
2967;DHT22;1493;51.496;7.210;2022-08-19T04:59:10;19.00;99.90
2967;DHT22;1493;51.496;7.210;2022-08-19T05:01:37;19.00;99.90
2967;DHT22;1493;51.496;7.210;2022-08-19T05:04:06;19.10;99.90
2967;DHT22;1493;51.496;7.210;2022-08-19T05:06:33;19.10;99.90
2967;DHT22;1493;51.496;7.210;2022-08-19T05:09:02;19.20;99.90
2967;DHT22;1493;51.496;7.210;2022-08-19T05:11:30;19.20;99.90
2967;DHT22;1493;51.496;7.210;2022-08-19T05:13:58;19.20;99.90
2967;DHT22;1493;51.496;7.210;2022-08-19T05:16:26;19.30;99.90
2967;DHT22;1493;51.496;7.210;2022-08-19T05:18:53;19.30;99.90
2967;DHT22;1493;51.496;7.210;2022-08-19T05:21:41;19.30;99.90
2967;DHT22;1493;51.496;7.210;2022-08-19T05:24:26;19.40;99.90
2967;DHT22;1493;51.496;7.210;2022-08-19T05:26:55;19.40;99.90
2967;DHT22;1493;51.496;7.210;2022-08-19T05:29:25;19.50;99.90
2967;DHT22;1493;51.496;7.210;2022-08-19T05:31:53;19.50;99.90
2967;DHT22;1493;51.496;7.210;2022-08-19T05:34:21;19.50;99.90
2967;DHT22;1493;51.496;7.210;2022-08-19T05:36:52;19.50;99.90
2967;DHT22;1493;51.496;7.210;2022-08-19T05:39:23;19.50;99.90
2967;DHT22;1493;51.496;7.210;2022-08-19T05:41:52;19.60;99.90
2967;DHT22;1493;51.496;7.210;2022-08-19T05:44:20;19.60;99.90
2967;DHT22;1493;51.496;7.210;2022-08-19T05:46:48;19.60;99.90
2967;DHT22;1493;51.496;7.210;2022-08-19T05:49:19;19.70;99.90
2967;DHT22;1493;51.496;7.210;2022-08-19T05:51:47;19.70;99.90
2967;DHT22;1493;51.496;7.210;2022-08-19T05:54:15;19.80;99.90
2967;DHT22;1493;51.496;7.210;2022-08-19T05:56:43;19.80;99.90
2967;DHT22;1493;51.496;7.210;2022-08-19T05:59:14;19.80;99.90
2967;DHT22;1493;51.496;7.210;2022-08-19T06:01:43;19.90;99.90
2967;DHT22;1493;51.496;7.210;2022-08-19T06:04:11;20.00;99.90
2967;DHT22;1493;51.496;7.210;2022-08-19T06:06:39;20.10;99.90
2967;DHT22;1493;51.496;7.210;2022-08-19T06:09:07;20.10;99.90
2967;DHT22;1493;51.496;7.210;2022-08-19T06:11:39;20.20;99.90
2967;DHT22;1493;51.496;7.210;2022-08-19T06:14:10;20.20;99.90
2967;DHT22;1493;51.496;7.210;2022-08-19T06:16:39;20.20;99.90
2967;DHT22;1493;51.496;7.210;2022-08-19T06:19:09;20.30;99.90
2967;DHT22;1493;51.496;7.210;2022-08-19T06:21:37;20.40;99.90
2967;DHT22;1493;51.496;7.210;2022-08-19T06:24:06;20.40;99.90
2967;DHT22;1493;51.496;7.210;2022-08-19T06:26:35;20.30;99.90
2967;DHT22;1493;51.496;7.210;2022-08-19T06:29:04;20.40;99.90
2967;DHT22;1493;51.496;7.210;2022-08-19T06:31:32;20.50;99.90
2967;DHT22;1493;51.496;7.210;2022-08-19T06:34:00;20.50;99.90
2967;DHT22;1493;51.496;7.210;2022-08-19T06:36:31;20.60;99.90
2967;DHT22;1493;51.496;7.210;2022-08-19T06:39:00;20.60;99.90
2967;DHT22;1493;51.496;7.210;2022-08-19T06:41:28;20.70;99.90
2967;DHT22;1493;51.496;7.210;2022-08-19T06:43:56;20.80;99.90
2967;DHT22;1493;51.496;7.210;2022-08-19T06:46:25;20.80;99.90
2967;DHT22;1493;51.496;7.210;2022-08-19T06:48:52;20.80;99.90
2967;DHT22;1493;51.496;7.210;2022-08-19T06:51:21;20.90;99.90
2967;DHT22;1493;51.496;7.210;2022-08-19T06:53:51;21.00;99.90
2967;DHT22;1493;51.496;7.210;2022-08-19T06:56:21;20.90;99.90
2967;DHT22;1493;51.496;7.210;2022-08-19T06:58:50;20.90;99.90
2967;DHT22;1493;51.496;7.210;2022-08-19T07:01:19;21.00;99.90
2967;DHT22;1493;51.496;7.210;2022-08-19T07:03:47;21.10;99.90
2967;DHT22;1493;51.496;7.210;2022-08-19T07:06:16;21.20;99.90
2967;DHT22;1493;51.496;7.210;2022-08-19T07:08:45;21.10;99.90
2967;DHT22;1493;51.496;7.210;2022-08-19T07:11:17;21.10;99.90
2967;DHT22;1493;51.496;7.210;2022-08-19T07:13:45;21.10;99.90
2967;DHT22;1493;51.496;7.210;2022-08-19T07:16:16;21.20;99.90
2967;DHT22;1493;51.496;7.210;2022-08-19T07:18:46;21.20;99.90
2967;DHT22;1493;51.496;7.210;2022-08-19T07:21:16;21.20;99.90
2967;DHT22;1493;51.496;7.210;2022-08-19T07:23:44;21.30;99.90
2967;DHT22;1493;51.496;7.210;2022-08-19T07:26:14;21.40;99.90
2967;DHT22;1493;51.496;7.210;2022-08-19T07:28:41;21.40;99.90
2967;DHT22;1493;51.496;7.210;2022-08-19T07:31:10;21.50;99.90
2967;DHT22;1493;51.496;7.210;2022-08-19T07:33:37;21.50;99.90
2967;DHT22;1493;51.496;7.210;2022-08-19T07:36:07;21.40;99.90
2967;DHT22;1493;51.496;7.210;2022-08-19T07:38:37;21.50;99.90
2967;DHT22;1493;51.496;7.210;2022-08-19T07:41:05;21.50;99.90
2967;DHT22;1493;51.496;7.210;2022-08-19T07:43:32;21.60;99.90
2967;DHT22;1493;51.496;7.210;2022-08-19T07:45:59;21.60;99.90
2967;DHT22;1493;51.496;7.210;2022-08-19T07:48:27;21.70;99.90
2967;DHT22;1493;51.496;7.210;2022-08-19T07:50:56;21.90;99.90
2967;DHT22;1493;51.496;7.210;2022-08-19T07:53:24;21.90;99.90
2967;DHT22;1493;51.496;7.210;2022-08-19T07:55:51;22.00;99.90
2967;DHT22;1493;51.496;7.210;2022-08-19T07:58:20;21.90;99.90
2967;DHT22;1493;51.496;7.210;2022-08-19T08:00:49;22.00;99.90
2967;DHT22;1493;51.496;7.210;2022-08-19T08:03:19;22.10;99.90
2967;DHT22;1493;51.496;7.210;2022-08-19T08:06:07;22.20;99.90
2967;DHT22;1493;51.496;7.210;2022-08-19T08:08:52;22.30;99.90
2967;DHT22;1493;51.496;7.210;2022-08-19T08:11:38;22.40;99.90
2967;DHT22;1493;51.496;7.210;2022-08-19T08:14:05;22.40;99.90
2967;DHT22;1493;51.496;7.210;2022-08-19T08:16:35;22.70;99.90
2967;DHT22;1493;51.496;7.210;2022-08-19T08:19:04;22.80;99.90
2967;DHT22;1493;51.496;7.210;2022-08-19T08:21:31;22.90;99.90
2967;DHT22;1493;51.496;7.210;2022-08-19T08:24:00;22.80;99.90
2967;DHT22;1493;51.496;7.210;2022-08-19T08:26:27;23.00;99.90
2967;DHT22;1493;51.496;7.210;2022-08-19T08:28:54;23.00;99.90
2967;DHT22;1493;51.496;7.210;2022-08-19T08:31:21;23.10;99.90
2967;DHT22;1493;51.496;7.210;2022-08-19T08:33:48;23.10;99.90
2967;DHT22;1493;51.496;7.210;2022-08-19T08:36:16;23.30;99.90
2967;DHT22;1493;51.496;7.210;2022-08-19T08:38:44;23.40;99.90
2967;DHT22;1493;51.496;7.210;2022-08-19T08:41:18;23.50;99.90
2967;DHT22;1493;51.496;7.210;2022-08-19T08:43:49;23.70;99.90
2967;DHT22;1493;51.496;7.210;2022-08-19T08:46:22;23.70;99.90
2967;DHT22;1493;51.496;7.210;2022-08-19T08:48:56;23.80;99.90
2967;DHT22;1493;51.496;7.210;2022-08-19T08:51:27;23.80;99.90
2967;DHT22;1493;51.496;7.210;2022-08-19T08:53:55;23.80;99.90
2967;DHT22;1493;51.496;7.210;2022-08-19T08:56:24;23.90;99.90
2967;DHT22;1493;51.496;7.210;2022-08-19T08:58:56;23.90;99.90
2967;DHT22;1493;51.496;7.210;2022-08-19T09:01:23;24.10;99.90
2967;DHT22;1493;51.496;7.210;2022-08-19T09:03:50;24.30;99.90
2967;DHT22;1493;51.496;7.210;2022-08-19T09:06:25;24.40;99.90
2967;DHT22;1493;51.496;7.210;2022-08-19T09:09:02;24.70;99.90
2967;DHT22;1493;51.496;7.210;2022-08-19T09:11:39;24.90;99.90
2967;DHT22;1493;51.496;7.210;2022-08-19T09:14:17;25.10;99.90
2967;DHT22;1493;51.496;7.210;2022-08-19T09:16:46;25.10;99.90
2967;DHT22;1493;51.496;7.210;2022-08-19T09:19:14;25.30;99.90
2967;DHT22;1493;51.496;7.210;2022-08-19T09:21:43;25.70;99.90
2967;DHT22;1493;51.496;7.210;2022-08-19T09:24:10;26.00;99.90
2967;DHT22;1493;51.496;7.210;2022-08-19T09:26:39;25.80;99.90
2967;DHT22;1493;51.496;7.210;2022-08-19T09:29:05;25.60;99.90
2967;DHT22;1493;51.496;7.210;2022-08-19T09:31:32;25.70;99.90
2967;DHT22;1493;51.496;7.210;2022-08-19T09:33:59;25.50;99.90
2967;DHT22;1493;51.496;7.210;2022-08-19T09:36:29;25.40;99.90
2967;DHT22;1493;51.496;7.210;2022-08-19T09:38:58;25.50;99.90
2967;DHT22;1493;51.496;7.210;2022-08-19T09:41:25;25.50;99.90
2967;DHT22;1493;51.496;7.210;2022-08-19T09:43:55;25.50;99.90
2967;DHT22;1493;51.496;7.210;2022-08-19T09:46:23;25.60;99.90
2967;DHT22;1493;51.496;7.210;2022-08-19T09:48:52;25.50;99.90
2967;DHT22;1493;51.496;7.210;2022-08-19T09:51:21;25.60;99.90
2967;DHT22;1493;51.496;7.210;2022-08-19T09:53:49;25.90;99.90
2967;DHT22;1493;51.496;7.210;2022-08-19T09:56:18;26.20;99.90
2967;DHT22;1493;51.496;7.210;2022-08-19T09:58:45;26.20;99.90
2967;DHT22;1493;51.496;7.210;2022-08-19T10:01:18;25.80;99.90
2967;DHT22;1493;51.496;7.210;2022-08-19T10:03:48;25.80;99.90
2967;DHT22;1493;51.496;7.210;2022-08-19T10:06:16;25.60;99.90
2967;DHT22;1493;51.496;7.210;2022-08-19T10:08:43;25.50;99.90
2967;DHT22;1493;51.496;7.210;2022-08-19T10:11:11;25.50;99.90
2967;DHT22;1493;51.496;7.210;2022-08-19T10:13:40;25.50;99.90
2967;DHT22;1493;51.496;7.210;2022-08-19T10:16:09;25.60;99.90
2967;DHT22;1493;51.496;7.210;2022-08-19T10:18:38;25.60;99.90
2967;DHT22;1493;51.496;7.210;2022-08-19T10:21:11;25.50;99.90
2967;DHT22;1493;51.496;7.210;2022-08-19T10:23:41;25.80;99.90
2967;DHT22;1493;51.496;7.210;2022-08-19T10:26:09;26.00;99.90
2967;DHT22;1493;51.496;7.210;2022-08-19T10:28:37;26.20;99.90
2967;DHT22;1493;51.496;7.210;2022-08-19T10:31:05;26.20;99.90
2967;DHT22;1493;51.496;7.210;2022-08-19T10:33:33;26.50;99.90
2967;DHT22;1493;51.496;7.210;2022-08-19T10:36:03;27.00;99.90
2967;DHT22;1493;51.496;7.210;2022-08-19T10:38:30;27.60;99.90
2967;DHT22;1493;51.496;7.210;2022-08-19T10:40:57;27.70;99.90
2967;DHT22;1493;51.496;7.210;2022-08-19T10:43:24;27.70;99.90
2967;DHT22;1493;51.496;7.210;2022-08-19T10:45:54;27.90;99.90
2967;DHT22;1493;51.496;7.210;2022-08-19T10:48:24;28.20;99.90
2967;DHT22;1493;51.496;7.210;2022-08-19T10:50:51;28.20;99.90
2967;DHT22;1493;51.496;7.210;2022-08-19T10:53:37;28.10;99.90
2967;DHT22;1493;51.496;7.210;2022-08-19T10:56:04;27.40;99.90
2967;DHT22;1493;51.496;7.210;2022-08-19T10:58:49;27.60;99.90
2967;DHT22;1493;51.496;7.210;2022-08-19T11:01:16;27.90;99.90
2967;DHT22;1493;51.496;7.210;2022-08-19T11:03:43;28.00;99.90
2967;DHT22;1493;51.496;7.210;2022-08-19T11:06:11;27.60;99.90
2967;DHT22;1493;51.496;7.210;2022-08-19T11:08:39;27.70;99.90
2967;DHT22;1493;51.496;7.210;2022-08-19T11:11:08;28.00;99.90
2967;DHT22;1493;51.496;7.210;2022-08-19T11:13:37;28.10;99.90
2967;DHT22;1493;51.496;7.210;2022-08-19T11:16:07;28.20;99.90
2967;DHT22;1493;51.496;7.210;2022-08-19T11:18:36;28.40;99.90
2967;DHT22;1493;51.496;7.210;2022-08-19T11:21:08;28.50;99.90
2967;DHT22;1493;51.496;7.210;2022-08-19T11:23:35;28.60;99.90
2967;DHT22;1493;51.496;7.210;2022-08-19T11:26:04;28.80;99.90
2967;DHT22;1493;51.496;7.210;2022-08-19T11:28:30;29.10;99.90
2967;DHT22;1493;51.496;7.210;2022-08-19T11:30:57;29.00;99.90
2967;DHT22;1493;51.496;7.210;2022-08-19T11:33:24;29.10;99.90
2967;DHT22;1493;51.496;7.210;2022-08-19T11:35:52;29.40;99.90
2967;DHT22;1493;51.496;7.210;2022-08-19T11:38:19;29.80;99.90
2967;DHT22;1493;51.496;7.210;2022-08-19T11:40:54;29.70;99.90
2967;DHT22;1493;51.496;7.210;2022-08-19T11:43:23;29.80;99.90
2967;DHT22;1493;51.496;7.210;2022-08-19T11:45:52;30.10;99.90
2967;DHT22;1493;51.496;7.210;2022-08-19T11:48:19;30.30;99.90
2967;DHT22;1493;51.496;7.210;2022-08-19T11:50:47;30.20;99.90
2967;DHT22;1493;51.496;7.210;2022-08-19T11:53:15;30.40;99.90
2967;DHT22;1493;51.496;7.210;2022-08-19T11:55:42;30.70;99.90
2967;DHT22;1493;51.496;7.210;2022-08-19T11:58:10;31.00;99.90
2967;DHT22;1493;51.496;7.210;2022-08-19T12:00:39;31.30;99.90
2967;DHT22;1493;51.496;7.210;2022-08-19T12:03:07;31.30;99.90
2967;DHT22;1493;51.496;7.210;2022-08-19T12:05:36;31.60;99.90
2967;DHT22;1493;51.496;7.210;2022-08-19T12:08:04;31.40;99.90
2967;DHT22;1493;51.496;7.210;2022-08-19T12:10:31;31.10;99.90
2967;DHT22;1493;51.496;7.210;2022-08-19T12:12:58;30.50;99.90
2967;DHT22;1493;51.496;7.210;2022-08-19T12:15:25;30.20;99.90
2967;DHT22;1493;51.496;7.210;2022-08-19T12:17:54;30.10;99.90
2967;DHT22;1493;51.496;7.210;2022-08-19T12:20:23;30.20;99.90
2967;DHT22;1493;51.496;7.210;2022-08-19T12:22:50;30.20;99.90
2967;DHT22;1493;51.496;7.210;2022-08-19T12:25:17;30.30;99.90
2967;DHT22;1493;51.496;7.210;2022-08-19T12:27:44;30.50;99.90
2967;DHT22;1493;51.496;7.210;2022-08-19T12:30:13;30.20;99.90
2967;DHT22;1493;51.496;7.210;2022-08-19T12:32:40;29.80;99.90
2967;DHT22;1493;51.496;7.210;2022-08-19T12:35:08;29.50;99.90
2967;DHT22;1493;51.496;7.210;2022-08-19T12:37:37;29.20;99.90
2967;DHT22;1493;51.496;7.210;2022-08-19T12:40:05;29.30;99.90
2967;DHT22;1493;51.496;7.210;2022-08-19T12:42:32;29.30;99.90
2967;DHT22;1493;51.496;7.210;2022-08-19T12:45:00;29.60;99.90
2967;DHT22;1493;51.496;7.210;2022-08-19T12:47:27;30.10;99.90
2967;DHT22;1493;51.496;7.210;2022-08-19T12:49:54;30.60;99.90
2967;DHT22;1493;51.496;7.210;2022-08-19T12:52:24;31.10;99.90
2967;DHT22;1493;51.496;7.210;2022-08-19T12:54:53;30.80;99.90
2967;DHT22;1493;51.496;7.210;2022-08-19T12:57:21;30.30;99.90
2967;DHT22;1493;51.496;7.210;2022-08-19T12:59:52;30.00;99.90
2967;DHT22;1493;51.496;7.210;2022-08-19T13:02:20;30.10;99.90
2967;DHT22;1493;51.496;7.210;2022-08-19T13:04:47;30.50;99.90
2967;DHT22;1493;51.496;7.210;2022-08-19T13:07:14;30.60;99.90
2967;DHT22;1493;51.496;7.210;2022-08-19T13:09:43;31.00;99.90
2967;DHT22;1493;51.496;7.210;2022-08-19T13:12:10;31.20;99.90
2967;DHT22;1493;51.496;7.210;2022-08-19T13:14:38;31.20;99.90
2967;DHT22;1493;51.496;7.210;2022-08-19T13:17:06;31.20;99.90
2967;DHT22;1493;51.496;7.210;2022-08-19T13:19:36;31.30;99.90
2967;DHT22;1493;51.496;7.210;2022-08-19T13:22:05;31.50;99.90
2967;DHT22;1493;51.496;7.210;2022-08-19T13:24:32;31.50;99.90
2967;DHT22;1493;51.496;7.210;2022-08-19T13:27:00;31.10;99.90
2967;DHT22;1493;51.496;7.210;2022-08-19T13:29:27;30.80;99.90
2967;DHT22;1493;51.496;7.210;2022-08-19T13:32:12;31.00;99.90
2967;DHT22;1493;51.496;7.210;2022-08-19T13:34:56;31.30;99.90
2967;DHT22;1493;51.496;7.210;2022-08-19T13:37:23;31.20;99.90
2967;DHT22;1493;51.496;7.210;2022-08-19T13:40:05;31.40;99.90
2967;DHT22;1493;51.496;7.210;2022-08-19T13:42:33;31.70;99.90
2967;DHT22;1493;51.496;7.210;2022-08-19T13:45:00;31.70;99.90
2967;DHT22;1493;51.496;7.210;2022-08-19T13:47:27;31.50;99.90
2967;DHT22;1493;51.496;7.210;2022-08-19T13:49:54;31.70;99.90
2967;DHT22;1493;51.496;7.210;2022-08-19T13:52:21;31.80;99.90
2967;DHT22;1493;51.496;7.210;2022-08-19T13:54:48;31.80;99.90
2967;DHT22;1493;51.496;7.210;2022-08-19T13:57:15;31.70;99.90
2967;DHT22;1493;51.496;7.210;2022-08-19T13:59:43;31.80;99.90
2967;DHT22;1493;51.496;7.210;2022-08-19T14:02:10;31.90;99.90
2967;DHT22;1493;51.496;7.210;2022-08-19T14:04:37;32.20;99.90
2967;DHT22;1493;51.496;7.210;2022-08-19T14:07:04;32.20;99.90
2967;DHT22;1493;51.496;7.210;2022-08-19T14:09:31;32.50;99.90
2967;DHT22;1493;51.496;7.210;2022-08-19T14:11:58;32.30;99.90
2967;DHT22;1493;51.496;7.210;2022-08-19T14:14:24;32.40;99.90
2967;DHT22;1493;51.496;7.210;2022-08-19T14:16:53;32.10;99.90
2967;DHT22;1493;51.496;7.210;2022-08-19T14:19:19;31.90;99.90
2967;DHT22;1493;51.496;7.210;2022-08-19T14:21:47;32.10;99.90
2967;DHT22;1493;51.496;7.210;2022-08-19T14:24:13;32.20;99.90
2967;DHT22;1493;51.496;7.210;2022-08-19T14:26:40;32.00;99.90
2967;DHT22;1493;51.496;7.210;2022-08-19T14:29:07;32.10;99.90
2967;DHT22;1493;51.496;7.210;2022-08-19T14:31:34;32.00;99.90
2967;DHT22;1493;51.496;7.210;2022-08-19T14:34:02;31.90;99.90
2967;DHT22;1493;51.496;7.210;2022-08-19T14:36:29;32.00;99.90
2967;DHT22;1493;51.496;7.210;2022-08-19T14:38:57;31.80;99.90
2967;DHT22;1493;51.496;7.210;2022-08-19T14:41:26;31.70;99.90
2967;DHT22;1493;51.496;7.210;2022-08-19T14:43:54;31.60;99.90
2967;DHT22;1493;51.496;7.210;2022-08-19T14:46:24;31.70;99.90
2967;DHT22;1493;51.496;7.210;2022-08-19T14:48:53;31.40;99.90
2967;DHT22;1493;51.496;7.210;2022-08-19T14:51:23;31.30;99.90
2967;DHT22;1493;51.496;7.210;2022-08-19T14:53:52;31.60;99.90
2967;DHT22;1493;51.496;7.210;2022-08-19T14:56:21;31.80;99.90
2967;DHT22;1493;51.496;7.210;2022-08-19T14:58:48;31.80;99.90
2967;DHT22;1493;51.496;7.210;2022-08-19T15:01:17;31.80;99.90
2967;DHT22;1493;51.496;7.210;2022-08-19T15:03:46;31.80;99.90
2967;DHT22;1493;51.496;7.210;2022-08-19T15:06:13;31.80;99.90
2967;DHT22;1493;51.496;7.210;2022-08-19T15:08:42;31.80;99.90
2967;DHT22;1493;51.496;7.210;2022-08-19T15:11:12;31.70;99.90
2967;DHT22;1493;51.496;7.210;2022-08-19T15:13:40;31.40;99.90
2967;DHT22;1493;51.496;7.210;2022-08-19T15:16:07;31.00;99.90
2967;DHT22;1493;51.496;7.210;2022-08-19T15:18:35;31.30;99.90
2967;DHT22;1493;51.496;7.210;2022-08-19T15:21:03;31.40;99.20
2967;DHT22;1493;51.496;7.210;2022-08-19T15:23:30;31.60;99.90
2967;DHT22;1493;51.496;7.210;2022-08-19T15:25:58;31.80;99.70
2967;DHT22;1493;51.496;7.210;2022-08-19T15:28:25;31.80;99.90
2967;DHT22;1493;51.496;7.210;2022-08-19T15:30:53;32.00;99.90
2967;DHT22;1493;51.496;7.210;2022-08-19T15:33:19;32.20;99.90
2967;DHT22;1493;51.496;7.210;2022-08-19T15:35:47;32.30;99.90
2967;DHT22;1493;51.496;7.210;2022-08-19T15:38:16;32.00;99.90
2967;DHT22;1493;51.496;7.210;2022-08-19T15:40:45;31.80;99.90
2967;DHT22;1493;51.496;7.210;2022-08-19T15:43:14;31.50;96.30
2967;DHT22;1493;51.496;7.210;2022-08-19T15:45:41;31.20;98.60
2967;DHT22;1493;51.496;7.210;2022-08-19T15:48:09;30.50;97.80
2967;DHT22;1493;51.496;7.210;2022-08-19T15:50:36;30.40;99.90
2967;DHT22;1493;51.496;7.210;2022-08-19T15:53:06;30.20;99.90
2967;DHT22;1493;51.496;7.210;2022-08-19T15:55:36;29.70;99.90
2967;DHT22;1493;51.496;7.210;2022-08-19T15:58:05;29.40;99.90
2967;DHT22;1493;51.496;7.210;2022-08-19T16:00:51;29.30;99.90
2967;DHT22;1493;51.496;7.210;2022-08-19T16:03:35;28.90;99.90
2967;DHT22;1493;51.496;7.210;2022-08-19T16:06:16;28.70;99.90
2967;DHT22;1493;51.496;7.210;2022-08-19T16:08:52;28.20;99.90
2967;DHT22;1493;51.496;7.210;2022-08-19T16:11:20;28.10;99.90
2967;DHT22;1493;51.496;7.210;2022-08-19T16:13:48;28.10;99.90